Time;durP1;ratioP1;P1;durP2;ratioP2;P2;SDS_P1;SDS_P2;PMS_P1;PMS_P2;Temp;Humidity;BMP_temperature;BMP_pressure;BME280_temperature;BME280_humidity;BME280_pressure;Samples;Min_cycle;Max_cycle;Signal;HPM_P1;HPM_P2
2023/09/20 00:00:57;;;;;;;3.37;1.77;;;17.10;99.90;;;;;;5030922;28;20160;-74
2023/09/20 00:03:25;;;;;;;10.97;1.70;;;17.10;99.90;;;;;;5032072;28;20564;-74
2023/09/20 00:05:51;;;;;;;3.33;1.57;;;17.00;99.90;;;;;;5030374;28;20825;-74
2023/09/20 00:08:17;;;;;;;1.47;1.33;;;17.10;99.90;;;;;;5031982;28;20405;-74
2023/09/20 00:10:45;;;;;;;2.13;1.33;;;17.00;99.90;;;;;;5030391;28;20493;-75
2023/09/20 00:13:12;;;;;;;3.07;1.60;;;17.00;99.90;;;;;;5031932;28;20429;-74
2023/09/20 00:15:40;;;;;;;6.57;1.93;;;17.00;99.90;;;;;;5031519;28;20459;-74
2023/09/20 00:18:07;;;;;;;1.67;1.23;;;17.00;99.90;;;;;;5030751;28;20783;-74
2023/09/20 00:20:33;;;;;;;1.93;1.73;;;17.00;99.90;;;;;;5030658;28;20776;-74
2023/09/20 00:23:00;;;;;;;2.10;1.27;;;17.10;99.90;;;;;;5031812;28;20398;-74
2023/09/20 00:25:27;;;;;;;5.80;1.63;;;17.00;99.90;;;;;;5030113;28;20526;-74
2023/09/20 00:27:52;;;;;;;3.83;1.87;;;17.00;99.90;;;;;;5035172;28;20942;-74
2023/09/20 00:30:19;;;;;;;2.60;1.60;;;17.10;99.90;;;;;;5035067;28;20415;-74
2023/09/20 00:32:45;;;;;;;6.10;1.90;;;17.00;99.90;;;;;;5035074;28;20160;-74
2023/09/20 00:35:14;;;;;;;2.80;2.37;;;17.00;99.90;;;;;;5034561;28;20460;-74
2023/09/20 00:37:40;;;;;;;2.00;1.50;;;17.00;99.90;;;;;;5035300;28;20402;-74
2023/09/20 00:40:15;;;;;;;2.23;1.90;;;17.00;99.90;;;;;;5034075;28;20413;-74
2023/09/20 00:42:42;;;;;;;3.33;1.63;;;17.00;99.90;;;;;;5034398;28;20959;-74
2023/09/20 00:45:09;;;;;;;2.23;1.90;;;17.00;99.90;;;;;;5035336;28;20475;-74
2023/09/20 00:47:36;;;;;;;2.10;1.60;;;16.90;99.90;;;;;;5034222;28;20643;-74
2023/09/20 00:50:02;;;;;;;3.43;1.90;;;16.90;99.90;;;;;;5034067;28;20413;-74
2023/09/20 00:52:28;;;;;;;3.60;1.60;;;16.90;99.90;;;;;;5035387;28;20456;-74
2023/09/20 00:54:57;;;;;;;2.67;1.90;;;16.90;99.90;;;;;;5034968;28;20442;-74
2023/09/20 00:57:24;;;;;;;1.63;1.17;;;16.90;99.90;;;;;;5035352;28;20434;-74
2023/09/20 00:59:49;;;;;;;4.23;1.87;;;16.90;99.90;;;;;;5035288;28;20464;-74
2023/09/20 01:02:15;;;;;;;2.67;1.50;;;16.90;99.90;;;;;;5035220;28;20398;-74
2023/09/20 01:04:42;;;;;;;4.87;1.77;;;16.90;99.90;;;;;;5034931;28;20191;-74
2023/09/20 01:07:08;;;;;;;2.07;1.80;;;16.80;99.90;;;;;;5033859;28;20195;-74
2023/09/20 01:09:33;;;;;;;2.60;1.47;;;16.80;99.90;;;;;;5035155;28;20398;-74
2023/09/20 01:11:59;;;;;;;2.90;2.20;;;16.70;99.90;;;;;;5034038;28;20213;-74
2023/09/20 01:14:27;;;;;;;1.73;1.40;;;16.70;99.90;;;;;;5034773;28;20767;-74
2023/09/20 01:16:54;;;;;;;2.87;2.10;;;16.60;99.90;;;;;;5033744;28;20171;-74
2023/09/20 01:19:19;;;;;;;2.47;1.73;;;16.60;99.90;;;;;;5034886;28;20402;-74
2023/09/20 01:21:46;;;;;;;5.47;1.50;;;16.50;99.90;;;;;;5033637;28;20423;-74
2023/09/20 01:24:13;;;;;;;4.47;1.90;;;16.50;99.90;;;;;;5034575;28;20191;-74
2023/09/20 01:26:39;;;;;;;6.20;1.87;;;16.50;99.90;;;;;;5033483;28;20820;-74
2023/09/20 01:29:05;;;;;;;2.27;1.33;;;16.50;99.90;;;;;;5034816;28;20395;-74
2023/09/20 01:31:31;;;;;;;1.70;1.17;;;16.40;99.90;;;;;;5034744;28;20413;-74
2023/09/20 01:33:57;;;;;;;1.80;1.50;;;16.40;99.90;;;;;;5033062;28;20282;-74
2023/09/20 01:36:22;;;;;;;3.57;1.97;;;16.40;99.90;;;;;;5034362;28;20846;-74
2023/09/20 01:38:48;;;;;;;3.17;1.87;;;16.40;99.90;;;;;;5033082;28;20251;-74
2023/09/20 01:41:14;;;;;;;3.10;1.83;;;16.30;99.90;;;;;;5034579;28;20195;-74
2023/09/20 01:43:41;;;;;;;1.77;1.67;;;16.30;99.90;;;;;;5033120;28;20199;-74
2023/09/20 01:46:07;;;;;;;1.80;1.30;;;16.20;99.90;;;;;;5032995;28;20450;-74
2023/09/20 01:48:34;;;;;;;2.50;1.60;;;16.20;99.90;;;;;;5034434;28;20428;-74
2023/09/20 01:50:59;;;;;;;12.37;8.07;;;16.20;99.90;;;;;;5033162;28;20429;-74
2023/09/20 01:53:25;;;;;;;4.67;3.40;;;16.20;99.90;;;;;;5032912;28;20505;-74
2023/09/20 01:55:51;;;;;;;4.97;1.77;;;16.20;99.90;;;;;;5032848;28;20214;-74
2023/09/20 01:58:16;;;;;;;2.87;2.00;;;16.30;99.90;;;;;;5034230;28;20179;-74
2023/09/20 02:00:42;;;;;;;1.53;1.37;;;16.30;99.90;;;;;;5034167;28;20788;-74
2023/09/20 02:03:19;;;;;;;4.80;1.80;;;16.30;99.90;;;;;;5034075;28;20246;-74
2023/09/20 02:05:48;;;;;;;2.23;1.57;;;16.30;99.90;;;;;;5032824;28;20800;-74
2023/09/20 02:08:15;;;;;;;3.70;1.70;;;16.20;99.90;;;;;;5033853;28;20779;-74
2023/09/20 02:10:41;;;;;;;2.40;1.60;;;16.30;99.90;;;;;;5034029;28;20418;-74
2023/09/20 02:13:07;;;;;;;4.07;1.70;;;16.20;99.90;;;;;;5033952;28;20395;-74
2023/09/20 02:15:34;;;;;;;4.00;1.73;;;16.20;99.90;;;;;;5033661;28;20429;-74
2023/09/20 02:18:02;;;;;;;2.30;1.67;;;16.20;99.90;;;;;;5033920;28;20771;-74
2023/09/20 02:20:33;;;;;;;3.13;2.07;;;16.20;99.90;;;;;;5033735;28;20398;-74
2023/09/20 02:22:59;;;;;;;6.20;2.00;;;16.20;99.90;;;;;;5033841;28;20398;-74
2023/09/20 02:25:26;;;;;;;2.00;1.60;;;16.10;99.90;;;;;;5032203;28;20441;-74
2023/09/20 02:27:54;;;;;;;2.33;1.50;;;16.10;99.90;;;;;;5032050;28;20286;-74
2023/09/20 02:30:24;;;;;;;2.80;1.60;;;16.10;99.90;;;;;;5033493;28;20468;-74
2023/09/20 02:32:52;;;;;;;4.10;1.67;;;16.10;99.90;;;;;;5033715;28;20406;-74
2023/09/20 02:35:21;;;;;;;2.13;1.50;;;16.10;99.90;;;;;;5033294;28;20917;-74
2023/09/20 02:37:48;;;;;;;2.50;2.07;;;16.10;99.90;;;;;;5033307;28;20610;-74
2023/09/20 02:40:14;;;;;;;8.17;4.17;;;16.10;99.90;;;;;;5033164;28;20456;-74
2023/09/20 02:42:44;;;;;;;4.33;3.80;;;16.10;99.90;;;;;;5032233;28;20460;-74
2023/09/20 02:45:13;;;;;;;2.77;2.20;;;16.10;99.90;;;;;;5033027;28;20418;-74
2023/09/20 02:47:43;;;;;;;5.20;2.63;;;16.10;99.90;;;;;;5033316;28;20492;-74
2023/09/20 02:50:10;;;;;;;4.57;2.20;;;16.00;99.90;;;;;;5032967;28;20398;-74
2023/09/20 02:52:36;;;;;;;3.10;2.10;;;16.00;99.90;;;;;;5031905;28;20450;-74
2023/09/20 02:55:06;;;;;;;3.20;1.77;;;16.00;99.90;;;;;;5031156;28;20464;-74
2023/09/20 02:57:32;;;;;;;3.27;2.10;;;16.00;99.90;;;;;;5033112;28;20171;-74
2023/09/20 02:59:59;;;;;;;5.20;1.73;;;16.00;99.90;;;;;;5033064;28;20463;-73
2023/09/20 03:02:24;;;;;;;3.30;1.90;;;15.90;99.90;;;;;;5031707;28;20642;-74
2023/09/20 03:04:53;;;;;;;3.43;1.50;;;15.90;99.90;;;;;;5032762;28;20442;-74
2023/09/20 03:07:20;;;;;;;4.87;2.33;;;15.80;99.90;;;;;;5032933;28;20198;-74
2023/09/20 03:09:46;;;;;;;4.97;2.40;;;15.80;99.90;;;;;;5032803;28;20410;-73
2023/09/20 03:12:13;;;;;;;9.70;6.90;;;15.70;99.90;;;;;;5032767;28;20399;-73
2023/09/20 03:14:38;;;;;;;5.57;4.37;;;15.60;99.90;;;;;;5032480;28;20940;-72
2023/09/20 03:17:04;;;;;;;5.20;2.87;;;15.60;99.90;;;;;;5032710;28;20403;-74
2023/09/20 03:19:31;;;;;;;3.93;2.40;;;15.50;99.90;;;;;;5031663;28;20171;-74
2023/09/20 03:21:57;;;;;;;5.13;2.23;;;15.50;99.90;;;;;;5032743;28;20468;-74
2023/09/20 03:24:23;;;;;;;3.33;1.93;;;15.50;99.90;;;;;;5032258;28;20956;-74
2023/09/20 03:26:51;;;;;;;1.93;1.30;;;15.50;99.90;;;;;;5032292;28;20504;-74
2023/09/20 03:29:18;;;;;;;2.27;1.70;;;15.50;99.90;;;;;;5032605;28;20187;-74
2023/09/20 03:31:44;;;;;;;3.53;2.07;;;15.50;99.90;;;;;;5032506;28;20405;-74
2023/09/20 03:34:11;;;;;;;1.77;1.67;;;15.40;99.90;;;;;;5031060;28;20483;-74
2023/09/20 03:36:41;;;;;;;8.10;2.23;;;15.40;99.90;;;;;;5032242;28;20414;-74
2023/09/20 03:39:06;;;;;;;2.53;2.10;;;15.40;99.90;;;;;;5032272;28;20411;-74
2023/09/20 03:41:32;;;;;;;2.40;1.70;;;15.40;99.90;;;;;;5032235;28;20406;-74
2023/09/20 03:43:58;;;;;;;5.10;2.60;;;15.40;99.90;;;;;;5032177;28;20179;-75
2023/09/20 03:46:23;;;;;;;2.50;1.77;;;15.30;99.90;;;;;;5032058;28;20633;-74
2023/09/20 03:48:49;;;;;;;4.33;2.30;;;15.30;99.90;;;;;;5032245;28;20163;-74
2023/09/20 03:51:15;;;;;;;2.07;1.77;;;15.30;99.90;;;;;;5031195;28;20195;-74
2023/09/20 03:53:44;;;;;;;3.00;2.03;;;15.20;99.90;;;;;;5031864;28;20180;-75
2023/09/20 03:56:11;;;;;;;2.87;1.70;;;15.20;99.90;;;;;;5032001;28;20402;-74
2023/09/20 03:58:39;;;;;;;2.00;1.50;;;15.20;99.90;;;;;;5032064;28;20410;-74
2023/09/20 04:01:05;;;;;;;3.20;1.80;;;15.10;99.90;;;;;;5030237;28;20410;-75
2023/09/20 04:03:34;;;;;;;2.50;1.70;;;15.10;99.90;;;;;;5031991;28;20405;-75
2023/09/20 04:06:01;;;;;;;4.90;2.20;;;15.10;99.90;;;;;;5031802;28;20274;-74
2023/09/20 04:08:26;;;;;;;5.20;4.00;;;15.00;99.90;;;;;;5031937;28;20780;-74
2023/09/20 04:10:52;;;;;;;10.23;6.10;;;15.00;99.90;;;;;;5031914;28;20406;-74
2023/09/20 04:13:17;;;;;;;6.97;5.30;;;15.00;99.90;;;;;;5031925;28;20643;-74
2023/09/20 04:15:44;;;;;;;5.17;4.10;;;14.90;99.90;;;;;;5031641;28;20203;-74
2023/09/20 04:18:13;;;;;;;4.10;2.67;;;14.90;99.90;;;;;;5031844;28;20163;-74
2023/09/20 04:20:39;;;;;;;2.37;2.17;;;14.90;99.90;;;;;;5031832;28;20811;-74
2023/09/20 04:23:05;;;;;;;3.90;2.30;;;14.90;99.90;;;;;;5031810;28;20406;-74
2023/09/20 04:25:30;;;;;;;2.37;1.97;;;14.80;99.90;;;;;;5031457;28;20476;-74
2023/09/20 04:27:56;;;;;;;2.27;2.07;;;14.80;99.90;;;;;;5030565;28;20554;-74
2023/09/20 04:30:21;;;;;;;1.97;1.77;;;14.80;99.90;;;;;;5031726;28;20172;-74
2023/09/20 04:32:48;;;;;;;1.70;1.60;;;14.70;99.90;;;;;;5031743;28;20167;-74
2023/09/20 04:35:13;;;;;;;2.70;1.93;;;14.70;99.90;;;;;;5031391;28;20187;-74
2023/09/20 04:37:39;;;;;;;2.10;1.67;;;14.70;99.90;;;;;;5031672;28;20401;-75
2023/09/20 04:40:08;;;;;;;4.00;1.80;;;14.70;99.90;;;;;;5030407;28;20595;-77
2023/09/20 04:42:35;;;;;;;2.53;2.20;;;14.60;99.90;;;;;;5030199;28;20172;-75
2023/09/20 04:45:01;;;;;;;6.20;2.07;;;14.60;99.90;;;;;;5031261;28;20430;-76
2023/09/20 04:47:28;;;;;;;4.73;2.30;;;14.60;99.90;;;;;;5031210;28;20565;-77
2023/09/20 04:49:53;;;;;;;2.20;1.60;;;14.60;99.90;;;;;;5031410;28;20409;-75
2023/09/20 04:52:19;;;;;;;4.40;1.87;;;14.60;99.90;;;;;;5031372;28;20399;-75
2023/09/20 04:54:44;;;;;;;1.73;1.60;;;14.60;99.90;;;;;;5029648;28;20204;-74
2023/09/20 04:57:13;;;;;;;1.63;1.53;;;14.50;99.90;;;;;;5031429;28;20175;-75
2023/09/20 04:59:39;;;;;;;4.10;2.23;;;14.50;99.90;;;;;;5031324;28;20226;-75
2023/09/20 05:02:05;;;;;;;4.90;3.50;;;14.50;99.90;;;;;;5029991;28;20449;-75
2023/09/20 05:04:34;;;;;;;5.83;3.07;;;14.50;99.90;;;;;;5031088;28;21245;-75
2023/09/20 05:07:07;;;;;;;4.10;3.00;;;14.40;99.90;;;;;;5031493;28;21034;-75
2023/09/20 05:09:34;;;;;;;2.20;1.80;;;14.40;99.90;;;;;;5031437;28;20406;-75
2023/09/20 05:12:00;;;;;;;4.63;2.40;;;14.40;99.90;;;;;;5031522;28;20485;-75
2023/09/20 05:14:27;;;;;;;4.27;1.83;;;14.40;99.90;;;;;;5034745;28;20499;-75
2023/09/20 05:16:52;;;;;;;3.60;1.77;;;14.40;99.90;;;;;;5034962;28;20772;-75
2023/09/20 05:19:18;;;;;;;2.60;2.17;;;14.40;99.90;;;;;;5034883;28;20406;-75
2023/09/20 05:21:44;;;;;;;2.93;1.93;;;14.40;99.90;;;;;;5035067;28;20182;-76
2023/09/20 05:24:09;;;;;;;2.17;1.90;;;14.40;99.90;;;;;;5034728;28;20186;-76
2023/09/20 05:26:35;;;;;;;1.90;1.80;;;14.40;99.90;;;;;;5034576;28;20681;-74
2023/09/20 05:29:00;;;;;;;1.37;1.27;;;14.50;99.90;;;;;;5034894;28;20168;-75
2023/09/20 05:31:28;;;;;;;2.77;1.67;;;14.50;99.90;;;;;;5034751;28;20246;-76
2023/09/20 05:33:55;;;;;;;2.23;1.93;;;14.50;99.90;;;;;;5034549;28;20180;-75
2023/09/20 05:36:23;;;;;;;1.70;1.50;;;14.60;99.90;;;;;;5034608;28;20405;-75
2023/09/20 05:38:49;;;;;;;2.27;1.63;;;14.60;99.90;;;;;;5034778;28;20410;-76
2023/09/20 05:41:17;;;;;;;5.30;1.77;;;14.70;99.90;;;;;;5034493;28;20468;-74
2023/09/20 05:43:42;;;;;;;4.27;2.43;;;14.70;99.90;;;;;;5034500;28;20429;-75
2023/09/20 05:46:08;;;;;;;4.47;2.97;;;14.70;99.90;;;;;;5033037;28;20446;-75
2023/09/20 05:48:34;;;;;;;2.20;2.00;;;14.80;99.90;;;;;;5034510;28;20186;-75
2023/09/20 05:51:00;;;;;;;3.40;2.23;;;14.80;99.90;;;;;;5034183;28;20406;-76
2023/09/20 05:53:26;;;;;;;2.73;2.17;;;14.90;99.90;;;;;;5034103;28;20475;-75
2023/09/20 05:55:53;;;;;;;14.20;3.03;;;15.00;99.90;;;;;;5034034;28;20800;-76
2023/09/20 05:58:19;;;;;;;9.90;3.20;;;15.10;99.90;;;;;;5034336;28;20413;-74
2023/09/20 06:00:45;;;;;;;10.00;3.23;;;15.20;99.90;;;;;;5034301;28;20199;-74
2023/09/20 06:03:12;;;;;;;8.80;3.50;;;15.40;99.90;;;;;;5032885;28;20168;-76
2023/09/20 06:05:38;;;;;;;7.10;3.53;;;15.50;99.90;;;;;;5033780;28;20184;-75
2023/09/20 06:08:05;;;;;;;6.30;3.50;;;15.60;99.90;;;;;;5034172;28;20409;-74
2023/09/20 06:10:31;;;;;;;3.53;2.20;;;15.70;99.90;;;;;;5032858;28;20176;-75
2023/09/20 06:12:57;;;;;;;5.20;2.67;;;15.70;99.90;;;;;;5032856;28;20406;-76
2023/09/20 06:15:22;;;;;;;4.67;2.20;;;15.80;99.90;;;;;;5033497;28;20195;-75
2023/09/20 06:17:48;;;;;;;5.17;2.50;;;15.80;99.90;;;;;;5033960;28;20174;-76
2023/09/20 06:20:21;;;;;;;4.17;2.10;;;15.90;99.90;;;;;;5034277;28;20226;-77
2023/09/20 06:22:50;;;;;;;1.83;1.60;;;16.00;99.90;;;;;;5033980;28;20176;-76
2023/09/20 06:25:19;;;;;;;3.33;2.77;;;16.10;99.90;;;;;;5033318;28;20438;-75
2023/09/20 06:27:44;;;;;;;6.03;2.33;;;16.20;99.90;;;;;;5033636;28;20468;-76
2023/09/20 06:30:13;;;;;;;3.23;2.30;;;16.30;99.90;;;;;;5033684;28;20897;-74
2023/09/20 06:32:44;;;;;;;3.47;2.43;;;16.50;99.90;;;;;;5033567;28;20163;-74
2023/09/20 06:35:10;;;;;;;8.07;3.33;;;16.50;99.90;;;;;;5033278;28;20433;-75
2023/09/20 06:37:38;;;;;;;3.80;3.10;;;16.50;99.90;;;;;;5033628;28;20505;-74
2023/09/20 06:40:15;;;;;;;3.80;3.00;;;16.70;99.90;;;;;;5032238;28;20425;-75
2023/09/20 06:42:40;;;;;;;8.17;3.43;;;16.70;99.90;;;;;;5032321;28;20460;-76
2023/09/20 06:45:08;;;;;;;7.77;3.20;;;16.90;99.90;;;;;;5033088;28;20964;-74
2023/09/20 06:47:34;;;;;;;4.00;3.03;;;16.90;99.90;;;;;;5033215;28;20207;-75
2023/09/20 06:50:02;;;;;;;4.63;3.10;;;17.00;99.90;;;;;;5033095;28;20537;-75
2023/09/20 06:52:28;;;;;;;5.43;3.40;;;17.10;99.90;;;;;;5032835;28;20171;-74
2023/09/20 06:54:53;;;;;;;7.23;3.40;;;17.10;99.90;;;;;;5032779;28;20442;-74
2023/09/20 06:57:21;;;;;;;3.93;2.93;;;17.20;99.90;;;;;;5032002;28;20175;-75
2023/09/20 06:59:47;;;;;;;4.70;2.63;;;17.30;99.90;;;;;;5033117;28;20163;-76
2023/09/20 07:02:14;;;;;;;5.03;2.63;;;17.40;99.90;;;;;;5031869;28;20417;-76
2023/09/20 07:04:40;;;;;;;3.10;2.80;;;17.60;99.90;;;;;;5032758;28;20205;-76
2023/09/20 07:07:08;;;;;;;5.93;3.00;;;17.80;99.90;;;;;;5033009;28;21030;-76
2023/09/20 07:09:34;;;;;;;4.10;3.03;;;18.00;99.90;;;;;;5031621;28;20163;-75
2023/09/20 07:12:03;;;;;;;6.37;2.53;;;18.20;99.90;;;;;;5032676;28;20502;-73
2023/09/20 07:14:31;;;;;;;4.90;2.80;;;18.30;99.90;;;;;;5032506;28;20580;-72
2023/09/20 07:16:57;;;;;;;2.87;2.00;;;18.50;99.90;;;;;;5032746;28;20414;-72
2023/09/20 07:19:26;;;;;;;6.20;2.17;;;18.80;99.90;;;;;;5032844;28;20407;-71
2023/09/20 07:21:52;;;;;;;4.00;1.70;;;18.90;99.90;;;;;;5031365;28;20825;-73
2023/09/20 07:24:24;;;;;;;4.63;2.10;;;19.00;99.90;;;;;;5032370;28;20480;-76
2023/09/20 07:26:51;;;;;;;2.70;2.10;;;19.10;99.90;;;;;;5032666;28;20450;-77
2023/09/20 07:29:17;;;;;;;3.87;1.93;;;19.30;99.90;;;;;;5032714;28;20901;-77
2023/09/20 07:31:42;;;;;;;2.33;1.70;;;19.50;99.90;;;;;;5031256;28;20410;-77
2023/09/20 07:34:16;;;;;;;6.10;2.50;;;19.70;99.90;;;;;;5032393;28;20180;-77
2023/09/20 07:36:43;;;;;;;7.03;1.67;;;19.80;99.90;;;;;;5031704;28;20163;-76
2023/09/20 07:39:17;;;;;;;2.63;1.93;;;20.00;99.90;;;;;;5032551;28;20414;-76
2023/09/20 07:41:50;;;;;;;3.20;1.80;;;20.10;99.90;;;;;;5032442;28;20785;-76
2023/09/20 07:44:23;;;;;;;3.43;2.30;;;20.20;99.90;;;;;;5032346;28;20437;-76
2023/09/20 07:46:52;;;;;;;4.17;1.90;;;20.30;99.90;;;;;;5031311;28;20811;-76
2023/09/20 07:49:19;;;;;;;4.17;1.97;;;20.30;99.90;;;;;;5032353;28;20426;-76
2023/09/20 07:51:45;;;;;;;1.97;1.33;;;20.40;99.90;;;;;;5031443;28;20453;-76
2023/09/20 07:54:10;;;;;;;2.20;2.00;;;20.50;99.90;;;;;;5030731;28;20482;-76
2023/09/20 07:56:40;;;;;;;1.97;1.80;;;20.50;99.90;;;;;;5032144;28;20179;-75
2023/09/20 07:59:06;;;;;;;2.47;1.70;;;20.50;99.90;;;;;;5032231;28;20210;-76
2023/09/20 08:01:32;;;;;;;1.83;1.73;;;20.50;99.90;;;;;;5042621;28;20850;-76
2023/09/20 08:03:58;;;;;;;2.90;2.47;;;20.50;99.90;;;;;;5050554;28;20437;-75
2023/09/20 08:06:28;;;;;;;2.50;2.30;;;20.50;99.90;;;;;;5042388;28;20453;-75
2023/09/20 08:08:55;;;;;;;2.97;2.60;;;20.60;99.90;;;;;;5032219;28;20764;-76
2023/09/20 08:11:20;;;;;;;3.57;3.27;;;20.80;99.90;;;;;;5040652;28;20782;-76
2023/09/20 08:13:46;;;;;;;2.73;1.77;;;20.90;99.90;;;;;;5051701;28;20405;-76
2023/09/20 08:16:12;;;;;;;7.53;3.20;;;21.10;99.90;;;;;;5051460;28;20911;-75
2023/09/20 08:21:23;;;;;;;5.73;2.07;;;21.20;99.90;;;;;;5051816;28;20451;-76
2023/09/20 09:02:18;;;;;;;3.63;1.70;;;24.10;99.90;;;;;;5035587;28;20405;-75
2023/09/20 09:04:52;;;;;;;3.03;1.57;;;24.10;99.90;;;;;;5035000;28;20418;-75
2023/09/20 09:07:18;;;;;;;3.30;1.70;;;24.00;99.90;;;;;;5035296;28;20196;-74
2023/09/20 09:09:45;;;;;;;4.70;2.20;;;24.30;99.90;;;;;;5035219;28;20884;-75
2023/09/20 09:12:11;;;;;;;2.80;1.60;;;24.10;99.90;;;;;;5035179;28;20167;-75
2023/09/20 09:14:38;;;;;;;3.50;1.43;;;24.30;99.90;;;;;;5033540;28;20438;-75
2023/09/20 09:17:05;;;;;;;3.10;1.70;;;25.30;99.90;;;;;;5034995;28;20213;-75
2023/09/20 09:19:30;;;;;;;3.87;1.77;;;26.10;99.90;;;;;;5035010;28;20497;-75
2023/09/20 09:21:57;;;;;;;1.93;1.30;;;27.30;99.90;;;;;;5034987;28;20878;-75
2023/09/20 09:24:23;;;;;;;4.27;2.03;;;29.60;99.90;;;;;;5034606;28;20215;-75
2023/09/20 09:26:48;;;;;;;1.63;1.10;;;32.00;90.50;;;;;;5034835;28;20948;-73
2023/09/20 09:29:18;;;;;;;1.83;1.33;;;34.70;70.20;;;;;;5034782;28;20417;-73
2023/09/20 09:31:49;;;;;;;1.57;1.47;;;35.40;53.70;;;;;;5034764;28;20286;-73
2023/09/20 09:34:19;;;;;;;1.33;1.23;;;35.00;47.10;;;;;;5034445;28;20454;-74
2023/09/20 09:36:45;;;;;;;2.00;1.17;;;34.80;46.00;;;;;;5034681;28;20418;-74
2023/09/20 09:39:14;;;;;;;2.07;1.27;;;35.20;45.70;;;;;;5033388;28;20426;-73
2023/09/20 09:41:44;;;;;;;1.90;1.70;;;36.10;45.20;;;;;;5033332;28;20415;-74
2023/09/20 09:44:10;;;;;;;2.73;1.30;;;37.70;43.80;;;;;;5034477;28;20521;-74
2023/09/20 09:46:38;;;;;;;1.40;1.10;;;38.70;40.10;;;;;;5034279;28;20496;-73
2023/09/20 09:49:11;;;;;;;1.60;1.50;;;38.70;36.40;;;;;;5034504;28;20398;-74
2023/09/20 09:51:46;;;;;;;1.30;1.10;;;38.50;36.20;;;;;;5033234;28;20765;-73
2023/09/20 09:54:15;;;;;;;2.03;1.57;;;39.10;36.20;;;;;;5032877;28;20511;-74
2023/09/20 09:56:41;;;;;;;1.40;1.30;;;39.70;35.60;;;;;;5034149;28;20488;-73
2023/09/20 09:59:08;;;;;;;2.10;1.30;;;39.80;33.70;;;;;;5032284;28;20434;-73
2023/09/20 10:01:36;;;;;;;1.30;1.20;;;40.00;34.10;;;;;;5034273;28;20502;-73
2023/09/20 10:04:10;;;;;;;1.47;1.37;;;39.90;32.60;;;;;;5032832;28;20195;-74
2023/09/20 10:06:43;;;;;;;2.13;1.80;;;38.80;32.40;;;;;;5033902;28;20449;-74
2023/09/20 10:09:10;;;;;;;7.67;1.80;;;37.00;34.20;;;;;;5034148;28;20420;-73
2023/09/20 10:11:37;;;;;;;3.60;1.40;;;35.40;35.20;;;;;;5034036;28;20413;-73
2023/09/20 10:14:07;;;;;;;1.80;1.13;;;34.00;37.30;;;;;;5033897;28;20450;-73
2023/09/20 10:16:34;;;;;;;1.20;1.07;;;33.20;39.10;;;;;;5033835;28;20800;-73
2023/09/20 10:19:01;;;;;;;4.03;1.37;;;33.00;39.80;;;;;;5032929;28;21160;-72
2023/09/20 10:21:30;;;;;;;2.80;1.20;;;32.70;40.10;;;;;;5033942;28;20406;-74
2023/09/20 10:24:02;;;;;;;1.27;1.17;;;32.40;41.40;;;;;;5033737;28;20977;-73
2023/09/20 10:26:42;;;;;;;1.90;1.23;;;31.80;40.70;;;;;;5032313;28;20458;-72
2023/09/20 10:29:28;;;;;;;2.50;1.57;;;31.30;41.70;;;;;;5033879;28;20402;-73
2023/09/20 10:32:13;;;;;;;1.77;1.33;;;32.00;41.70;;;;;;5033662;28;20885;-72
2023/09/20 10:34:39;;;;;;;2.53;1.40;;;33.50;40.20;;;;;;5033398;28;20499;-73
2023/09/20 10:37:08;;;;;;;2.07;1.70;;;34.10;38.60;;;;;;5033589;28;20406;-73
2023/09/20 10:39:34;;;;;;;1.50;1.40;;;33.40;38.40;;;;;;5033590;28;20258;-73
2023/09/20 10:42:12;;;;;;;2.33;1.53;;;31.80;38.10;;;;;;5033497;28;20500;-73
2023/09/20 10:44:41;;;;;;;2.30;1.37;;;31.20;40.50;;;;;;5033178;28;20282;-73
2023/09/20 10:47:11;;;;;;;3.50;1.40;;;30.90;40.90;;;;;;5033293;28;20457;-74
2023/09/20 10:49:50;;;;;;;1.73;1.20;;;31.90;41.00;;;;;;5033342;28;20411;-74
2023/09/20 10:52:33;;;;;;;1.40;1.10;;;32.20;39.80;;;;;;5033329;28;20409;-73
2023/09/20 10:55:22;;;;;;;3.73;1.30;;;32.00;39.20;;;;;;5032846;28;20445;-73
2023/09/20 10:57:48;;;;;;;4.87;1.33;;;32.20;39.90;;;;;;5033277;28;20928;-73
2023/09/20 11:00:14;;;;;;;1.93;1.20;;;32.10;39.90;;;;;;5033171;28;20417;-73
2023/09/20 11:02:42;;;;;;;1.90;1.10;;;32.10;39.90;;;;;;5032993;28;20410;-73
2023/09/20 11:05:11;;;;;;;1.60;1.40;;;32.90;40.80;;;;;;5032646;28;20187;-73
2023/09/20 11:07:39;;;;;;;1.93;1.30;;;33.40;39.50;;;;;;5032972;28;20458;-73
2023/09/20 11:10:10;;;;;;;2.40;1.27;;;34.70;39.00;;;;;;5032763;28;20398;-73
2023/09/20 11:12:36;;;;;;;1.30;1.07;;;36.10;36.90;;;;;;5032964;28;20413;-74
2023/09/20 11:15:05;;;;;;;2.80;1.27;;;35.00;36.10;;;;;;5032552;28;20429;-73
2023/09/20 11:17:31;;;;;;;1.30;1.10;;;35.60;37.40;;;;;;5032278;28;20221;-74
2023/09/20 11:19:58;;;;;;;2.13;1.03;;;36.60;36.30;;;;;;5031337;28;20454;-74
2023/09/20 11:22:23;;;;;;;2.57;1.50;;;37.00;34.70;;;;;;5032666;28;20217;-74
2023/09/20 11:24:51;;;;;;;1.40;1.30;;;37.80;34.50;;;;;;5032342;28;20430;-73
2023/09/20 11:27:17;;;;;;;2.30;1.50;;;37.50;34.10;;;;;;5032383;28;20590;-73
2023/09/20 11:29:43;;;;;;;2.03;1.37;;;37.00;33.70;;;;;;5032574;28;20417;-73
2023/09/20 11:32:12;;;;;;;2.43;1.30;;;35.70;34.90;;;;;;5032168;28;20168;-73
2023/09/20 11:34:43;;;;;;;2.57;1.53;;;34.80;35.60;;;;;;5032217;28;20432;-74
2023/09/20 11:37:09;;;;;;;1.30;1.20;;;34.00;36.90;;;;;;5032498;28;20430;-73
2023/09/20 11:39:35;;;;;;;1.40;1.30;;;32.90;37.80;;;;;;5032396;28;20449;-73
2023/09/20 11:42:01;;;;;;;2.33;1.40;;;32.20;39.00;;;;;;5032320;28;20206;-73
2023/09/20 11:44:27;;;;;;;2.43;1.43;;;31.80;39.00;;;;;;5031981;28;20278;-73
2023/09/20 11:46:54;;;;;;;1.83;1.33;;;32.00;39.90;;;;;;5032042;28;20537;-73
2023/09/20 11:49:20;;;;;;;2.43;1.57;;;33.00;39.40;;;;;;5032268;28;20406;-72
2023/09/20 11:51:46;;;;;;;1.77;1.40;;;34.70;38.80;;;;;;5032313;28;20414;-73
2023/09/20 11:54:11;;;;;;;1.43;1.33;;;36.50;36.30;;;;;;5032006;28;20552;-74
2023/09/20 11:56:37;;;;;;;2.40;1.20;;;38.10;34.10;;;;;;5031995;28;20167;-74
2023/09/20 11:59:09;;;;;;;2.70;1.50;;;39.50;33.30;;;;;;5032083;28;20251;-73
2023/09/20 12:01:40;;;;;;;2.17;1.50;;;40.70;31.80;;;;;;5032101;28;20481;-74
2023/09/20 12:04:05;;;;;;;1.80;1.37;;;41.40;30.20;;;;;;5032060;28;20860;-73
2023/09/20 12:06:31;;;;;;;1.67;1.20;;;41.30;29.10;;;;;;5031783;28;20425;-74
2023/09/20 12:09:00;;;;;;;1.50;1.30;;;41.30;30.10;;;;;;5031964;28;20674;-73
2023/09/20 12:11:26;;;;;;;3.57;1.83;;;40.90;29.30;;;;;;5032014;28;20210;-74
2023/09/20 12:13:51;;;;;;;2.77;1.80;;;40.00;29.10;;;;;;5030506;28;20756;-73
2023/09/20 12:16:18;;;;;;;1.60;1.50;;;38.80;30.40;;;;;;5031830;28;20414;-73
2023/09/20 12:18:44;;;;;;;2.47;1.80;;;38.10;31.10;;;;;;5031992;28;20658;-73
2023/09/20 12:21:10;;;;;;;1.90;1.60;;;36.90;31.10;;;;;;5031914;28;20940;-73
2023/09/20 12:23:38;;;;;;;2.13;1.47;;;36.00;32.50;;;;;;5031356;28;20410;-73
2023/09/20 12:26:04;;;;;;;1.83;1.73;;;35.60;33.60;;;;;;5031595;28;20182;-73
2023/09/20 12:28:30;;;;;;;6.27;1.40;;;35.00;34.20;;;;;;5031760;28;20406;-72
2023/09/20 12:30:58;;;;;;;3.63;1.30;;;35.00;34.80;;;;;;5031835;28;20159;-74
2023/09/20 12:33:24;;;;;;;2.07;1.70;;;36.10;35.30;;;;;;5031828;28;20570;-74
2023/09/20 12:35:52;;;;;;;1.70;1.20;;;36.90;33.70;;;;;;5031636;28;20425;-74
2023/09/20 12:38:17;;;;;;;3.23;1.37;;;36.60;33.50;;;;;;5030439;28;20417;-75
2023/09/20 12:40:43;;;;;;;1.70;1.50;;;37.00;33.20;;;;;;5031559;28;20402;-74
2023/09/20 12:43:09;;;;;;;1.83;1.60;;;36.90;32.40;;;;;;5031562;28;20398;-75
2023/09/20 12:45:35;;;;;;;1.70;1.60;;;36.90;33.00;;;;;;5031393;28;20450;-74
2023/09/20 12:48:00;;;;;;;1.57;1.30;;;37.30;32.70;;;;;;5031534;28;20292;-74
2023/09/20 12:50:26;;;;;;;2.57;1.90;;;38.10;32.50;;;;;;5031581;28;20246;-74
2023/09/20 12:52:51;;;;;;;2.80;1.80;;;38.10;32.00;;;;;;5030393;28;20168;-75
2023/09/20 12:55:17;;;;;;;2.30;1.60;;;38.00;31.70;;;;;;5029865;28;20205;-75
2023/09/20 12:57:43;;;;;;;2.10;1.90;;;37.60;32.00;;;;;;5031486;28;20171;-74
2023/09/20 13:00:11;;;;;;;2.03;1.67;;;37.10;32.10;;;;;;5031521;28;20543;-74
2023/09/20 13:02:37;;;;;;;1.60;1.50;;;36.10;32.70;;;;;;5030255;28;20171;-74
2023/09/20 13:05:03;;;;;;;4.43;1.97;;;35.50;33.20;;;;;;5031258;28;20418;-74
2023/09/20 13:07:29;;;;;;;1.60;1.30;;;35.20;34.20;;;;;;5031481;28;20582;-74
2023/09/20 13:09:56;;;;;;;2.13;2.00;;;35.10;33.50;;;;;;5031516;28;20164;-74
2023/09/20 13:12:22;;;;;;;5.00;1.80;;;36.00;33.60;;;;;;5031306;28;20405;-74
2023/09/20 13:14:48;;;;;;;1.80;1.63;;;37.00;34.00;;;;;;5031101;28;20427;-74
2023/09/20 13:17:15;;;;;;;4.03;2.17;;;37.80;32.50;;;;;;5031457;28;20175;-74
2023/09/20 13:19:40;;;;;;;2.03;1.83;;;38.40;31.30;;;;;;5031392;28;20398;-74
2023/09/20 13:22:08;;;;;;;2.03;1.80;;;39.10;30.40;;;;;;5030151;28;20441;-74
2023/09/20 13:24:34;;;;;;;2.90;1.90;;;39.70;30.40;;;;;;5030948;28;20188;-75
2023/09/20 13:27:01;;;;;;;1.87;1.77;;;40.40;29.80;;;;;;5031244;28;20458;-74